Time;durP1;ratioP1;P1;durP2;ratioP2;P2;SDS_P1;SDS_P2;PMS_P1;PMS_P2;Temp;Humidity;BMP_temperature;BMP_pressure;BME280_temperature;BME280_humidity;BME280_pressure;Samples;Min_cycle;Max_cycle;Signal;HPM_P1;HPM_P2
2021/05/11 00:01:40;;;;;;;5.65;4.30;;;18.10;99.90;;;;;;4990925;28;20671;-78
2021/05/11 00:04:06;;;;;;;6.97;4.20;;;18.10;99.90;;;;;;4990612;28;20034;-77
2021/05/11 00:06:32;;;;;;;6.28;4.57;;;18.00;99.90;;;;;;5005447;28;20030;-76
2021/05/11 00:08:58;;;;;;;8.90;4.80;;;18.10;99.90;;;;;;4989273;28;20260;-77
2021/05/11 00:11:24;;;;;;;7.55;4.82;;;18.00;99.90;;;;;;4990194;28;20027;-77
2021/05/11 00:13:50;;;;;;;9.10;4.68;;;18.00;99.90;;;;;;4991893;28;20030;-76
2021/05/11 00:16:16;;;;;;;6.70;4.82;;;18.10;99.90;;;;;;4990313;28;20035;-77
2021/05/11 00:18:42;;;;;;;7.28;5.00;;;18.00;99.90;;;;;;4990242;28;20037;-77
2021/05/11 00:21:07;;;;;;;7.55;4.68;;;18.00;99.90;;;;;;4990038;28;20126;-77
2021/05/11 00:23:33;;;;;;;6.93;5.00;;;17.90;99.90;;;;;;5005191;28;20027;-76
2021/05/11 00:47:45;;;;;;;10.48;5.13;;;17.90;99.90;;;;;;4984022;28;20073;-78
2021/05/11 00:50:11;;;;;;;8.77;5.80;;;17.90;99.90;;;;;;5024479;28;20076;-78
2021/05/11 00:52:38;;;;;;;11.77;5.43;;;17.90;99.90;;;;;;5008080;28;20134;-77
2021/05/11 00:55:04;;;;;;;9.35;5.57;;;17.90;99.90;;;;;;4995395;28;20049;-78
2021/05/11 00:57:32;;;;;;;8.52;5.70;;;18.00;99.90;;;;;;5004719;28;20261;-78
2021/05/11 00:59:59;;;;;;;6.22;5.30;;;18.00;99.90;;;;;;4994797;28;20056;-77
2021/05/11 01:02:25;;;;;;;5.53;4.80;;;17.80;99.90;;;;;;5007983;28;20121;-77
2021/05/11 01:04:51;;;;;;;21.98;5.70;;;17.90;99.90;;;;;;5009808;28;20011;-77
2021/05/11 01:07:18;;;;;;;5.88;5.18;;;17.80;99.90;;;;;;5009364;28;20269;-79
2021/05/11 01:09:44;;;;;;;6.53;4.95;;;17.80;99.90;;;;;;5009126;28;20116;-79
2021/05/11 01:12:09;;;;;;;10.65;5.72;;;17.90;99.90;;;;;;5009226;28;20033;-78
2021/05/11 01:14:35;;;;;;;8.98;5.72;;;17.90;99.90;;;;;;5006984;28;20064;-77
2021/05/11 01:17:01;;;;;;;9.05;6.63;;;17.90;99.90;;;;;;4990846;28;20018;-77
2021/05/11 01:19:46;;;;;;;7.78;5.97;;;17.80;99.90;;;;;;5007017;28;20052;-76
2021/05/11 01:24:44;;;;;;;8.20;6.45;;;17.70;99.90;;;;;;5009362;28;20034;-78
2021/05/11 01:29:45;;;;;;;8.88;7.30;;;17.80;99.90;;;;;;5008922;28;20018;-76
2021/05/11 01:53:58;;;;;;;15.15;10.38;;;17.70;99.90;;;;;;4989865;28;20034;-78
2021/05/11 01:56:47;;;;;;;14.55;10.43;;;17.70;99.90;;;;;;4992476;28;20060;-77
2021/05/11 02:10:00;;;;;;;11.75;10.25;;;17.70;99.90;;;;;;4994270;28;20034;-77
2021/05/11 02:23:25;;;;;;;13.23;10.10;;;17.90;99.90;;;;;;4992457;28;20080;-75
2021/05/11 02:25:50;;;;;;;15.55;11.18;;;17.90;99.90;;;;;;4992954;28;20540;-79
2021/05/11 02:28:16;;;;;;;15.80;11.65;;;17.80;99.90;;;;;;4992251;28;20133;-77
2021/05/11 02:30:42;;;;;;;16.30;10.88;;;17.90;99.90;;;;;;4991991;28;20034;-77
2021/05/11 02:33:07;;;;;;;13.85;10.30;;;17.90;99.90;;;;;;4992070;28;20034;-77
2021/05/11 02:35:34;;;;;;;14.35;10.75;;;17.90;99.90;;;;;;4992007;28;20050;-77
2021/05/11 02:38:00;;;;;;;15.23;11.02;;;18.00;99.90;;;;;;4993524;28;20010;-78
2021/05/11 02:40:25;;;;;;;14.73;10.88;;;18.00;99.90;;;;;;4992107;28;20042;-78
2021/05/11 02:42:57;;;;;;;15.63;11.38;;;17.90;99.90;;;;;;4991663;28;20042;-77
2021/05/11 02:45:22;;;;;;;15.73;11.55;;;17.90;99.90;;;;;;4987465;28;20047;-77
2021/05/11 02:47:49;;;;;;;14.60;12.05;;;17.90;99.90;;;;;;4975992;28;20038;-79
2021/05/11 02:50:16;;;;;;;18.98;12.07;;;17.90;99.90;;;;;;4993067;28;20494;-77
2021/05/11 02:52:42;;;;;;;18.48;12.55;;;17.90;99.90;;;;;;4991494;28;20377;-76
2021/05/11 02:55:08;;;;;;;16.92;10.98;;;17.90;99.90;;;;;;4991835;28;20061;-77
2021/05/11 02:57:33;;;;;;;13.80;10.63;;;17.90;99.90;;;;;;4990233;28;20084;-76
2021/05/11 02:59:59;;;;;;;16.02;11.40;;;17.90;99.90;;;;;;4991231;28;20042;-76
2021/05/11 03:02:26;;;;;;;18.55;11.55;;;17.90;99.90;;;;;;4991253;28;20041;-76
2021/05/11 03:04:52;;;;;;;12.88;10.30;;;17.90;99.90;;;;;;4991345;28;20030;-77
2021/05/11 03:07:17;;;;;;;14.90;10.25;;;17.90;99.90;;;;;;4990116;28;20388;-77
2021/05/11 03:09:43;;;;;;;14.95;10.05;;;17.90;99.90;;;;;;4986600;28;20030;-77
2021/05/11 03:12:09;;;;;;;11.75;9.90;;;17.90;99.90;;;;;;4977899;28;20038;-75
2021/05/11 03:14:34;;;;;;;13.45;9.63;;;17.90;99.90;;;;;;4989694;28;20026;-77
2021/05/11 03:17:00;;;;;;;10.93;8.68;;;17.90;99.90;;;;;;4992967;28;20046;-77
2021/05/11 03:19:26;;;;;;;14.18;9.32;;;17.70;99.90;;;;;;4991157;28;20439;-76
2021/05/11 03:21:52;;;;;;;11.82;8.05;;;17.70;99.90;;;;;;4986963;28;20181;-77
2021/05/11 03:24:17;;;;;;;11.20;8.85;;;17.70;99.90;;;;;;4979460;28;20041;-76
2021/05/11 03:26:43;;;;;;;12.90;9.13;;;17.70;99.90;;;;;;4989695;28;20061;-78
2021/05/11 03:29:09;;;;;;;17.08;10.27;;;17.60;99.90;;;;;;4992808;28;20391;-76
2021/05/11 03:31:34;;;;;;;14.35;9.20;;;17.50;99.90;;;;;;4989592;28;20130;-76
2021/05/11 03:34:00;;;;;;;19.92;10.70;;;17.60;99.90;;;;;;4986579;28;20074;-77
2021/05/11 03:36:26;;;;;;;17.63;11.00;;;17.70;99.90;;;;;;4980446;28;20049;-76
2021/05/11 03:38:53;;;;;;;16.80;10.82;;;17.80;99.90;;;;;;4990767;28;20038;-76
2021/05/11 03:41:23;;;;;;;15.50;11.40;;;17.70;99.90;;;;;;4992348;28;20069;-78
2021/05/11 03:44:12;;;;;;;16.13;10.60;;;17.80;99.90;;;;;;4991084;28;20076;-77
2021/05/11 03:46:36;;;;;;;12.40;10.30;;;17.80;99.90;;;;;;4990446;28;20117;-76
2021/05/11 03:49:02;;;;;;;20.33;13.50;;;17.70;99.90;;;;;;4991760;28;20384;-79
2021/05/11 03:51:28;;;;;;;14.43;10.10;;;17.70;99.90;;;;;;4990142;28;20448;-75
2021/05/11 03:53:54;;;;;;;14.38;10.18;;;17.70;99.90;;;;;;4990398;28;20042;-78
2021/05/11 03:56:19;;;;;;;14.02;9.40;;;17.60;99.90;;;;;;4990532;28;20022;-75
2021/05/11 03:58:45;;;;;;;11.05;8.15;;;17.60;99.90;;;;;;4992332;28;20030;-77
2021/05/11 04:01:11;;;;;;;11.45;7.50;;;17.60;99.90;;;;;;4990071;28;20448;-78
2021/05/11 04:03:36;;;;;;;8.13;6.47;;;17.60;99.90;;;;;;4990579;28;20038;-77
2021/05/11 04:06:03;;;;;;;12.40;6.57;;;17.50;99.90;;;;;;4990683;28;20041;-77
2021/05/11 04:08:53;;;;;;;9.02;6.38;;;17.60;99.90;;;;;;4990332;28;20045;-79
2021/05/11 04:16:27;;;;;;;10.20;5.45;;;17.50;99.90;;;;;;4990235;28;20133;-77
2021/05/11 04:18:53;;;;;;;11.00;5.78;;;17.40;99.90;;;;;;4989771;28;20432;-78
2021/05/11 04:21:20;;;;;;;7.78;5.10;;;17.30;99.90;;;;;;4990259;28;20056;-77
2021/05/11 04:23:47;;;;;;;6.60;5.53;;;17.30;99.90;;;;;;4990099;28;20499;-78
2021/05/11 04:26:14;;;;;;;9.10;4.97;;;17.40;99.90;;;;;;4991581;28;20069;-77
2021/05/11 04:28:40;;;;;;;9.43;6.03;;;17.30;99.90;;;;;;4989994;28;20042;-77
2021/05/11 04:31:08;;;;;;;6.50;5.10;;;17.30;99.90;;;;;;4988775;28;20437;-77
2021/05/11 04:33:34;;;;;;;7.82;5.30;;;17.30;99.90;;;;;;4990070;28;20045;-77
2021/05/11 04:36:00;;;;;;;10.68;4.80;;;17.20;99.90;;;;;;4989963;28;20073;-77
2021/05/11 04:38:26;;;;;;;9.07;4.65;;;17.20;99.90;;;;;;4989967;28;20266;-77
2021/05/11 04:40:53;;;;;;;7.78;3.90;;;17.20;99.90;;;;;;4991755;28;20110;-77
2021/05/11 04:43:20;;;;;;;5.05;3.67;;;17.20;99.90;;;;;;4988869;28;20034;-77
2021/05/11 04:45:46;;;;;;;6.05;3.85;;;17.20;99.90;;;;;;4988321;28;20038;-77
2021/05/11 04:48:12;;;;;;;7.65;3.80;;;17.20;99.90;;;;;;4989734;28;20112;-77
2021/05/11 04:50:38;;;;;;;7.85;3.50;;;17.20;99.90;;;;;;4988525;28;20061;-76
2021/05/11 04:53:04;;;;;;;7.55;3.33;;;17.10;99.90;;;;;;4991576;28;20050;-76
2021/05/11 04:55:31;;;;;;;7.88;3.40;;;17.10;99.90;;;;;;4989863;28;20122;-77
2021/05/11 04:57:57;;;;;;;8.52;3.50;;;17.10;99.90;;;;;;4988915;28;20117;-77
2021/05/11 05:00:22;;;;;;;6.32;3.80;;;17.20;99.90;;;;;;4989756;28;20109;-77
2021/05/11 05:02:53;;;;;;;5.60;3.83;;;17.20;99.90;;;;;;4988446;28;20042;-77
2021/05/11 05:05:19;;;;;;;9.35;4.68;;;17.20;99.90;;;;;;4991326;28;20038;-76
2021/05/11 05:07:45;;;;;;;6.13;4.13;;;17.20;99.90;;;;;;4990376;28;20129;-77
2021/05/11 05:10:12;;;;;;;8.02;4.45;;;17.20;99.90;;;;;;4989580;28;20034;-77
2021/05/11 05:12:38;;;;;;;7.10;4.50;;;17.10;99.90;;;;;;4988302;28;20074;-77
2021/05/11 05:15:05;;;;;;;9.15;5.25;;;17.10;99.90;;;;;;4988706;28;20038;-77
2021/05/11 05:17:30;;;;;;;8.40;5.13;;;17.10;99.90;;;;;;4988080;28;20173;-76
2021/05/11 05:19:56;;;;;;;10.05;5.45;;;17.20;99.90;;;;;;4990011;28;20125;-78
2021/05/11 05:22:21;;;;;;;10.43;5.72;;;17.20;99.90;;;;;;4988975;28;20042;-77
2021/05/11 05:24:57;;;;;;;8.35;5.93;;;17.10;99.90;;;;;;4987952;28;20034;-77
2021/05/11 05:27:26;;;;;;;11.10;6.18;;;17.10;99.90;;;;;;4989316;28;20027;-78
2021/05/11 05:29:51;;;;;;;10.13;6.15;;;17.10;99.90;;;;;;5007742;28;20034;-76
2021/05/11 05:32:17;;;;;;;8.98;5.85;;;17.10;99.90;;;;;;4994930;28;20332;-75
2021/05/11 05:34:43;;;;;;;7.93;6.45;;;17.00;99.90;;;;;;4993328;28;20042;-78
2021/05/11 05:37:10;;;;;;;13.80;6.28;;;17.00;99.90;;;;;;4996509;28;20042;-83
2021/05/11 05:42:05;;;;;;;8.50;5.55;;;17.10;99.90;;;;;;4995253;28;20043;-82
2021/05/11 05:44:31;;;;;;;12.38;6.03;;;17.00;99.90;;;;;;5010541;28;20440;-80
2021/05/11 05:46:57;;;;;;;11.00;5.88;;;17.00;99.90;;;;;;4997141;28;20542;-83
2021/05/11 05:49:40;;;;;;;8.43;5.03;;;17.00;99.90;;;;;;4995815;28;20077;-84
2021/05/11 05:52:09;;;;;;;12.07;4.75;;;17.00;99.90;;;;;;4996335;28;20549;-83
2021/05/11 05:54:35;;;;;;;6.68;4.65;;;17.00;99.90;;;;;;5010918;28;20026;-82
2021/05/11 05:57:01;;;;;;;4.85;4.03;;;17.00;99.90;;;;;;4993726;28;20031;-82
2021/05/11 05:59:26;;;;;;;9.73;4.30;;;17.00;99.90;;;;;;4993747;28;20421;-82
2021/05/11 06:01:53;;;;;;;5.53;4.00;;;17.00;99.90;;;;;;4999894;28;20153;-83
2021/05/11 06:04:23;;;;;;;6.47;4.20;;;16.90;99.90;;;;;;4996180;28;20043;-83
2021/05/11 06:06:49;;;;;;;12.43;4.78;;;17.00;99.90;;;;;;4994536;28;20042;-82
2021/05/11 06:09:17;;;;;;;5.53;3.95;;;17.00;99.90;;;;;;4992643;28;20117;-84
2021/05/11 06:14:14;;;;;;;5.65;3.97;;;17.00;99.90;;;;;;4995709;28;20118;-83
2021/05/11 06:19:24;;;;;;;10.80;4.30;;;16.90;99.90;;;;;;4993113;28;20137;-82
2021/05/11 06:21:50;;;;;;;7.18;4.30;;;16.90;99.90;;;;;;4993669;28;20054;-84
2021/05/11 06:24:16;;;;;;;6.05;4.25;;;16.90;99.90;;;;;;4993649;28;20042;-81
2021/05/11 06:26:41;;;;;;;8.48;4.70;;;17.00;99.90;;;;;;4992775;28;20060;-81
2021/05/11 06:29:09;;;;;;;6.10;4.57;;;17.00;99.90;;;;;;4994402;28;20034;-80
2021/05/11 06:31:35;;;;;;;9.65;4.50;;;17.00;99.90;;;;;;4992827;28;20039;-82
2021/05/11 06:34:02;;;;;;;6.95;4.43;;;17.00;99.90;;;;;;4990156;28;20045;-80
2021/05/11 06:36:28;;;;;;;6.75;4.28;;;17.10;99.90;;;;;;4982409;28;20038;-78
2021/05/11 06:38:54;;;;;;;10.27;4.35;;;17.10;99.90;;;;;;5007144;28;20125;-80
2021/05/11 06:41:20;;;;;;;6.70;4.28;;;17.20;99.90;;;;;;4992675;28;20376;-79
2021/05/11 06:43:46;;;;;;;6.05;3.95;;;17.20;99.90;;;;;;4996506;28;20196;-81
2021/05/11 06:54:14;;;;;;;6.15;3.75;;;17.20;99.90;;;;;;4981223;28;20376;-83
2021/05/11 06:56:43;;;;;;;7.72;3.95;;;17.20;99.90;;;;;;4992343;28;20968;-86
2021/05/11 06:59:11;;;;;;;6.97;3.92;;;17.20;99.90;;;;;;4993704;28;20035;-82
2021/05/11 07:01:37;;;;;;;8.10;3.92;;;17.30;99.90;;;;;;4991698;28;20038;-83
2021/05/11 07:04:02;;;;;;;4.90;3.65;;;17.30;99.90;;;;;;4991619;28;20092;-83
2021/05/11 07:06:28;;;;;;;6.07;3.97;;;17.30;99.90;;;;;;4990574;28;20361;-84
2021/05/11 07:08:59;;;;;;;4.82;3.38;;;17.20;99.90;;;;;;4991783;28;20038;-82
2021/05/11 07:11:31;;;;;;;3.60;2.88;;;17.10;99.90;;;;;;4991547;28;20033;-84
2021/05/11 07:13:57;;;;;;;4.53;3.28;;;17.10;99.90;;;;;;4992030;28;20317;-81
2021/05/11 07:16:22;;;;;;;4.32;2.65;;;17.10;99.90;;;;;;4991570;28;20045;-81
2021/05/11 07:18:48;;;;;;;4.15;2.72;;;17.00;99.90;;;;;;4991550;28;20056;-81
2021/05/11 07:21:14;;;;;;;11.45;5.55;;;17.00;99.90;;;;;;4987126;28;20427;-78
2021/05/11 07:23:40;;;;;;;5.05;3.20;;;17.00;99.90;;;;;;4975078;28;20082;-79
2021/05/11 07:31:24;;;;;;;3.65;2.78;;;17.00;99.90;;;;;;4990858;28;20058;-80
2021/05/11 07:33:52;;;;;;;7.13;3.38;;;17.10;99.90;;;;;;4990858;28;20042;-79
2021/05/11 07:36:18;;;;;;;8.70;2.78;;;17.20;99.90;;;;;;4989623;28;20053;-77
2021/05/11 07:38:47;;;;;;;4.38;2.60;;;17.30;99.90;;;;;;4990409;28;20034;-77
2021/05/11 07:41:14;;;;;;;6.72;2.50;;;17.50;99.90;;;;;;4992346;28;20097;-80
2021/05/11 07:43:42;;;;;;;4.28;2.25;;;17.70;99.90;;;;;;4991091;28;20133;-80
2021/05/11 08:05:23;;;;;;;7.90;3.08;;;19.00;97.80;;;;;;4991926;28;20024;-79
2021/05/11 08:10:38;;;;;;;4.68;2.10;;;19.00;97.30;;;;;;4990534;28;20088;-79
2021/05/11 08:15:58;;;;;;;6.97;2.20;;;18.70;97.40;;;;;;4992303;28;20476;-86
2021/05/11 08:18:41;;;;;;;4.82;2.13;;;18.60;97.20;;;;;;4990582;28;20045;-81
2021/05/11 08:29:20;;;;;;;3.45;2.03;;;18.30;97.50;;;;;;4990203;28;20392;-80
2021/05/11 08:31:45;;;;;;;4.22;1.88;;;18.20;97.60;;;;;;4991519;28;20026;-78
2021/05/11 08:34:11;;;;;;;5.10;2.53;;;18.30;97.60;;;;;;5005471;28;20559;-80
2021/05/11 08:36:36;;;;;;;9.23;1.90;;;18.30;97.40;;;;;;4989967;28;20050;-81
2021/05/11 08:39:04;;;;;;;5.85;1.65;;;18.30;97.40;;;;;;4988713;28;20054;-79
2021/05/11 08:41:30;;;;;;;5.85;2.00;;;18.40;97.30;;;;;;4989284;28;20098;-80
2021/05/11 08:43:55;;;;;;;5.70;1.98;;;18.30;97.00;;;;;;4991296;28;20476;-80
2021/05/11 08:46:21;;;;;;;7.25;3.75;;;18.20;97.10;;;;;;5005161;28;20105;-81
2021/05/11 08:48:50;;;;;;;4.68;2.00;;;18.30;97.10;;;;;;4989685;28;20050;-80
2021/05/11 08:51:26;;;;;;;;;;;18.40;97.20;;;;;;4989299;28;20034;-80
2021/05/11 09:07:44;;;;;;;5.65;2.28;;;19.60;95.70;;;;;;4993948;28;20121;-77
2021/05/11 09:27:07;;;;;;;5.10;1.98;;;20.20;94.50;;;;;;4984571;28;20114;-77
2021/05/11 10:49:32;;;;;;;5.85;1.33;;;19.60;91.80;;;;;;4991414;28;20049;-81
2021/05/11 10:52:10;;;;;;;2.45;0.90;;;19.60;91.60;;;;;;4991992;28;20038;-80
2021/05/11 10:54:59;;;;;;;4.05;1.40;;;19.70;91.60;;;;;;4991909;28;20031;-83
2021/05/11 10:57:50;;;;;;;5.38;1.08;;;19.70;91.70;;;;;;4991530;28;20513;-81
2021/05/11 11:00:31;;;;;;;2.95;1.20;;;19.50;91.40;;;;;;4992107;28;20031;-83
2021/05/11 11:03:13;;;;;;;3.10;1.10;;;19.50;91.60;;;;;;4991658;28;20053;-85
2021/05/11 11:05:45;;;;;;;2.05;1.23;;;19.40;91.50;;;;;;4991889;28;20022;-83
2021/05/11 11:08:34;;;;;;;3.53;1.17;;;19.30;91.60;;;;;;5008838;28;20034;-84
2021/05/11 11:11:12;;;;;;;3.67;1.23;;;19.40;91.50;;;;;;5007469;28;20081;-82
2021/05/11 11:13:39;;;;;;;1.38;1.00;;;19.40;91.70;;;;;;4987225;28;20031;-80
2021/05/11 11:16:06;;;;;;;3.45;1.25;;;19.40;91.60;;;;;;4985956;28;20046;-82
2021/05/11 11:18:32;;;;;;;3.35;1.15;;;19.50;91.50;;;;;;4987080;28;20042;-82
2021/05/11 11:21:18;;;;;;;3.22;1.05;;;19.50;91.30;;;;;;4976983;28;20115;-83
2021/05/11 11:23:52;;;;;;;2.67;1.17;;;19.40;91.30;;;;;;4991221;28;20436;-82
2021/05/11 11:26:32;;;;;;;5.72;1.67;;;19.40;91.70;;;;;;4992334;28;20436;-82
2021/05/11 11:29:09;;;;;;;1.88;1.02;;;19.40;92.00;;;;;;4991326;28;20375;-84
2021/05/11 11:31:40;;;;;;;4.78;1.60;;;19.60;91.80;;;;;;4991077;28;20104;-85
2021/05/11 11:34:35;;;;;;;5.90;1.70;;;19.40;91.60;;;;;;4990718;28;20427;-83
2021/05/11 11:37:13;;;;;;;7.75;1.58;;;19.40;91.70;;;;;;5006371;28;20081;-83
2021/05/11 11:39:48;;;;;;;5.10;1.67;;;19.50;91.90;;;;;;4986815;28;20038;-82
2021/05/11 11:42:19;;;;;;;8.57;1.50;;;19.50;91.90;;;;;;4978909;28;20121;-84
2021/05/11 11:44:46;;;;;;;6.25;1.33;;;19.40;91.90;;;;;;5006110;28;20045;-82
2021/05/11 11:47:17;;;;;;;3.90;1.35;;;19.50;91.90;;;;;;4992958;28;20022;-83
2021/05/11 11:49:46;;;;;;;6.13;1.20;;;19.60;92.00;;;;;;5006086;28;20499;-81
2021/05/11 12:00:14;;;;;;;5.18;1.40;;;19.30;91.70;;;;;;4990908;28;20105;-83
2021/05/11 12:03:00;;;;;;;4.55;1.35;;;19.40;92.00;;;;;;4990658;28;20050;-79
2021/05/11 12:05:36;;;;;;;3.42;1.30;;;19.50;91.80;;;;;;4989620;28;20448;-83
2021/05/11 12:10:43;;;;;;;3.90;1.42;;;19.50;91.80;;;;;;4990899;28;20034;-86
2021/05/11 12:13:10;;;;;;;6.72;1.33;;;19.50;91.70;;;;;;4990924;28;20492;-78
2021/05/11 12:15:37;;;;;;;5.28;1.23;;;19.60;91.80;;;;;;4990837;28;20100;-81
2021/05/11 12:18:19;;;;;;;6.60;1.60;;;19.70;91.70;;;;;;4990643;28;20472;-80
2021/05/11 12:20:57;;;;;;;8.77;1.60;;;19.80;91.70;;;;;;5004980;28;20062;-79
2021/05/11 12:23:23;;;;;;;4.25;1.30;;;19.90;91.60;;;;;;4989714;28;20508;-80
2021/05/11 12:25:57;;;;;;;7.03;1.50;;;20.00;91.30;;;;;;4991112;28;20117;-83
2021/05/11 12:28:32;;;;;;;4.20;1.30;;;20.00;91.20;;;;;;4975411;28;20054;-84
2021/05/11 12:30:58;;;;;;;7.35;1.73;;;20.20;91.40;;;;;;4990844;28;20452;-82
2021/05/11 12:33:39;;;;;;;3.03;1.15;;;20.30;91.20;;;;;;4990901;28;20551;-81
2021/05/11 12:36:25;;;;;;;6.53;1.77;;;20.10;90.70;;;;;;4991765;28;20039;-78
2021/05/11 12:39:11;;;;;;;4.60;1.10;;;20.10;90.90;;;;;;4989043;28;20554;-80
2021/05/11 12:41:37;;;;;;;5.87;1.90;;;20.10;90.90;;;;;;5005221;28;20026;-83
2021/05/11 12:44:04;;;;;;;5.53;1.60;;;20.10;90.80;;;;;;4991775;28;20046;-81
2021/05/11 12:46:32;;;;;;;3.15;1.00;;;20.20;90.70;;;;;;4989324;28;20467;-82
2021/05/11 12:49:03;;;;;;;10.02;1.70;;;20.00;90.70;;;;;;4989843;28;20054;-82
2021/05/11 12:51:35;;;;;;;8.18;1.50;;;20.10;90.80;;;;;;4989474;28;20041;-81
2021/05/11 12:54:04;;;;;;;13.43;1.67;;;20.20;91.00;;;;;;4984381;28;20051;-81
2021/05/11 12:56:35;;;;;;;5.10;1.48;;;20.20;90.90;;;;;;4972107;28;20180;-82
2021/05/11 12:59:15;;;;;;;7.20;1.75;;;20.20;91.00;;;;;;4991666;28;20444;-84
2021/05/11 13:15:37;;;;;;;12.07;1.45;;;20.00;91.00;;;;;;4979056;28;20077;-80
2021/05/11 13:21:16;;;;;;;;;;;;;;;;;;;;;
2021/05/11 13:26:17;;;;;;;12.73;2.67;;;20.00;91.20;;;;;;4993522;28;20037;-83
2021/05/11 13:29:06;;;;;;;3.72;1.35;;;20.00;91.30;;;;;;5006922;28;20074;-82
2021/05/11 13:31:37;;;;;;;5.40;1.45;;;20.00;91.40;;;;;;5007051;28;20132;-85
2021/05/11 13:34:13;;;;;;;6.50;1.70;;;20.00;91.20;;;;;;4990198;28;20046;-83
2021/05/11 13:36:41;;;;;;;9.88;1.40;;;19.90;91.40;;;;;;4991699;28;20512;-84
2021/05/11 13:39:08;;;;;;;7.75;1.63;;;20.00;91.50;;;;;;4991786;28;20046;-83
2021/05/11 13:41:34;;;;;;;5.35;1.40;;;20.00;91.50;;;;;;4991676;28;20022;-83
2021/05/11 13:44:00;;;;;;;9.30;2.17;;;20.00;91.50;;;;;;4992469;28;20118;-85
2021/05/11 13:46:26;;;;;;;4.13;1.30;;;20.10;91.60;;;;;;4988626;28;20144;-85
2021/05/11 13:48:52;;;;;;;3.47;1.27;;;20.00;91.60;;;;;;4990021;28;20531;-81
2021/05/11 13:51:18;;;;;;;5.20;1.70;;;19.90;91.70;;;;;;4994000;28;20038;-84
2021/05/11 13:53:47;;;;;;;3.75;1.50;;;19.80;91.80;;;;;;4993985;28;20042;-79
2021/05/11 14:02:09;;;;;;;4.80;1.25;;;19.70;92.10;;;;;;4992593;28;20413;-77
2021/05/11 14:04:35;;;;;;;5.22;1.40;;;19.70;92.10;;;;;;4993112;28;20045;-83
2021/05/11 14:07:02;;;;;;;10.57;1.60;;;19.70;92.30;;;;;;4995033;28;20042;-81
2021/05/11 14:09:29;;;;;;;7.82;1.70;;;19.70;92.30;;;;;;5012343;28;20261;-85
2021/05/11 14:11:55;;;;;;;4.93;1.23;;;19.70;92.20;;;;;;5011697;28;20124;-86
2021/05/11 14:14:21;;;;;;;4.88;1.50;;;19.60;92.30;;;;;;5012332;28;20448;-79
2021/05/11 14:16:47;;;;;;;6.28;1.50;;;19.60;92.20;;;;;;5013766;28;20068;-80
2021/05/11 14:19:14;;;;;;;13.43;2.15;;;19.60;92.20;;;;;;5011901;28;20100;-79
2021/05/11 14:21:40;;;;;;;8.13;2.00;;;19.60;92.20;;;;;;5011602;28;20530;-80
2021/05/11 14:24:07;;;;;;;9.60;1.70;;;19.60;92.20;;;;;;5012607;28;20037;-82
2021/05/11 14:26:32;;;;;;;4.18;1.80;;;19.40;92.20;;;;;;5012199;28;20030;-83
2021/05/11 14:28:58;;;;;;;7.70;2.00;;;19.40;92.30;;;;;;5012349;28;20084;-84
2021/05/11 14:31:26;;;;;;;4.88;1.60;;;19.40;92.50;;;;;;5011855;28;20050;-81
2021/05/11 14:33:51;;;;;;;8.55;2.03;;;19.40;92.60;;;;;;4999086;28;20034;-83
2021/05/11 14:36:17;;;;;;;3.97;1.75;;;19.40;92.70;;;;;;5000472;28;20030;-79
2021/05/11 14:38:43;;;;;;;10.00;2.30;;;19.40;92.80;;;;;;5011916;28;20033;-79
2021/05/11 14:41:10;;;;;;;8.60;2.22;;;19.40;92.80;;;;;;5012425;28;20022;-79
2021/05/11 14:43:39;;;;;;;6.20;1.92;;;19.30;92.70;;;;;;5010639;28;20619;-80
2021/05/11 14:46:06;;;;;;;9.43;2.13;;;19.30;92.80;;;;;;5012473;28;20054;-80
2021/05/11 14:48:33;;;;;;;15.75;3.10;;;19.40;92.80;;;;;;5011481;28;20060;-81
2021/05/11 14:50:59;;;;;;;11.55;2.15;;;19.40;93.10;;;;;;5011563;28;20040;-82
2021/05/11 14:53:25;;;;;;;7.43;2.10;;;19.40;93.00;;;;;;5012741;28;20121;-82
2021/05/11 14:55:52;;;;;;;12.48;2.13;;;19.40;92.90;;;;;;5014784;28;20049;-78
2021/05/11 14:58:17;;;;;;;8.73;1.95;;;19.40;93.10;;;;;;5011222;28;20088;-74
2021/05/11 15:00:43;;;;;;;5.82;1.77;;;19.40;93.30;;;;;;5010682;28;20487;-74
2021/05/11 15:03:13;;;;;;;5.55;1.80;;;19.50;93.40;;;;;;5009660;28;20475;-74
2021/05/11 15:05:39;;;;;;;3.95;1.67;;;19.40;93.30;;;;;;5010452;28;20421;-72
2021/05/11 15:08:06;;;;;;;7.90;2.17;;;19.40;93.30;;;;;;5011600;28;20026;-72
2021/05/11 15:10:32;;;;;;;2.63;1.33;;;19.40;93.40;;;;;;5010996;28;20034;-72
2021/05/11 15:12:58;;;;;;;9.90;1.65;;;19.40;93.30;;;;;;5009906;28;20042;-73
2021/05/11 15:15:24;;;;;;;6.60;1.70;;;19.30;93.40;;;;;;5009674;28;20260;-74
2021/05/11 15:20:19;;;;;;;7.80;2.00;;;19.20;93.60;;;;;;5012654;28;20041;-73
2021/05/11 15:22:50;;;;;;;5.93;2.85;;;19.20;93.70;;;;;;5011419;28;20459;-76
2021/05/11 15:25:17;;;;;;;4.57;1.92;;;19.20;94.00;;;;;;5010605;28;20041;-76
2021/05/11 15:27:42;;;;;;;3.72;1.80;;;19.20;94.10;;;;;;5009411;28;20574;-75
2021/05/11 15:30:08;;;;;;;4.75;1.98;;;19.20;94.00;;;;;;5010351;28;20112;-74
2021/05/11 15:32:51;;;;;;;5.05;1.63;;;19.20;94.40;;;;;;5010384;28;20128;-75
2021/05/11 15:35:18;;;;;;;4.50;1.40;;;19.20;94.30;;;;;;5012330;28;20088;-74
2021/05/11 15:37:46;;;;;;;10.18;1.77;;;19.20;94.30;;;;;;5009059;28;20037;-75
2021/05/11 15:40:15;;;;;;;5.60;1.70;;;19.20;94.50;;;;;;5009632;28;20038;-76
2021/05/11 15:42:41;;;;;;;8.25;1.95;;;19.20;94.60;;;;;;5010302;28;20133;-74
2021/05/11 15:45:09;;;;;;;6.28;2.08;;;19.20;94.60;;;;;;5002544;28;20053;-75
2021/05/11 15:47:38;;;;;;;4.00;1.73;;;19.20;94.60;;;;;;4992657;28;20045;-73
2021/05/11 15:50:05;;;;;;;6.28;1.85;;;19.20;94.70;;;;;;5010821;28;20045;-74
2021/05/11 15:52:31;;;;;;;7.25;2.03;;;19.10;94.70;;;;;;5010636;28;20041;-73
2021/05/11 15:54:57;;;;;;;9.23;2.53;;;19.20;94.70;;;;;;5009649;28;20056;-73
2021/05/11 15:57:23;;;;;;;8.40;1.98;;;19.20;94.70;;;;;;5010285;28;20033;-74
2021/05/11 15:59:48;;;;;;;6.50;2.13;;;19.20;94.60;;;;;;5010332;28;20038;-76
2021/05/11 16:02:14;;;;;;;6.88;2.10;;;19.20;94.60;;;;;;5010497;28;20036;-73
2021/05/11 16:04:40;;;;;;;4.53;1.85;;;19.20;94.80;;;;;;5010034;28;20037;-73
2021/05/11 16:07:05;;;;;;;6.70;1.98;;;19.20;94.80;;;;;;5009678;28;20052;-76
2021/05/11 16:09:31;;;;;;;6.47;1.40;;;19.10;94.60;;;;;;5008503;28;20034;-73
2021/05/11 16:11:57;;;;;;;10.52;1.90;;;19.10;94.90;;;;;;5009885;28;20022;-75
2021/05/11 16:14:23;;;;;;;5.18;2.38;;;19.20;95.30;;;;;;5009229;28;20374;-75
2021/05/11 16:16:49;;;;;;;4.55;2.58;;;19.10;95.20;;;;;;5011234;28;20022;-77
2021/05/11 16:19:14;;;;;;;5.00;1.90;;;19.20;95.50;;;;;;5008196;28;20045;-73
2021/05/11 16:21:40;;;;;;;5.40;1.88;;;19.20;96.00;;;;;;5009566;28;20045;-72
2021/05/11 16:24:06;;;;;;;6.13;2.28;;;19.10;95.80;;;;;;5003375;28;20354;-75
2021/05/11 16:26:32;;;;;;;6.75;2.17;;;19.00;95.90;;;;;;4990308;28;20436;-74
2021/05/11 16:28:58;;;;;;;5.80;1.95;;;19.10;96.30;;;;;;5010068;28;20040;-75
2021/05/11 16:31:24;;;;;;;6.32;2.00;;;19.10;96.30;;;;;;5010002;28;20042;-81
2021/05/11 16:33:50;;;;;;;5.72;2.20;;;19.10;96.70;;;;;;5009241;28;20116;-78
2021/05/11 16:36:16;;;;;;;5.32;1.95;;;19.10;96.70;;;;;;5008475;28;20030;-76
2021/05/11 16:38:42;;;;;;;4.95;1.70;;;19.00;97.00;;;;;;5009293;28;20349;-75
2021/05/11 16:41:09;;;;;;;3.88;1.70;;;19.00;96.70;;;;;;5011204;28;20034;-75
2021/05/11 16:43:35;;;;;;;4.85;2.38;;;19.00;96.70;;;;;;5009575;28;20052;-81
2021/05/11 16:46:03;;;;;;;3.88;1.70;;;19.00;96.80;;;;;;5008928;28;20030;-75
2021/05/11 16:48:30;;;;;;;5.75;1.98;;;19.00;96.70;;;;;;5009483;28;20096;-77
2021/05/11 16:50:56;;;;;;;3.65;2.10;;;18.90;96.70;;;;;;5008812;28;20030;-80
2021/05/11 16:53:22;;;;;;;4.25;2.10;;;18.90;96.70;;;;;;5011740;28;20033;-80
2021/05/11 16:55:47;;;;;;;5.63;1.83;;;18.90;96.60;;;;;;5011787;28;20360;-81
2021/05/11 16:58:13;;;;;;;10.27;2.35;;;18.90;96.80;;;;;;5011123;28;20038;-82
2021/05/11 17:00:41;;;;;;;10.07;1.92;;;18.80;97.00;;;;;;5009499;28;20065;-82
2021/05/11 17:03:06;;;;;;;6.83;2.10;;;18.80;96.80;;;;;;5010251;28;20080;-79
2021/05/11 17:05:33;;;;;;;5.47;2.20;;;18.80;96.80;;;;;;5010125;28;20026;-81
2021/05/11 17:08:00;;;;;;;4.90;2.22;;;18.80;96.90;;;;;;5011337;28;20410;-80
2021/05/11 17:10:28;;;;;;;3.83;1.98;;;18.80;96.80;;;;;;5011397;28;20125;-85
2021/05/11 17:12:56;;;;;;;6.70;2.25;;;18.80;96.70;;;;;;5011355;28;20120;-85
2021/05/11 17:15:22;;;;;;;;;;;18.70;96.50;;;;;;5006294;28;20050;-78
2021/05/11 17:17:48;;;;;;;9.75;2.05;;;18.70;96.50;;;;;;5009236;28;19910;-78
2021/05/11 17:20:19;;;;;;;7.03;1.80;;;18.70;96.70;;;;;;5011011;28;20508;-77
2021/05/11 17:22:46;;;;;;;5.97;1.55;;;18.70;96.60;;;;;;5008075;28;20065;-81
2021/05/11 17:25:12;;;;;;;6.68;1.92;;;18.70;96.50;;;;;;5010292;28;20065;-80
2021/05/11 17:27:38;;;;;;;10.45;2.33;;;18.60;96.30;;;;;;5013147;28;20117;-78
2021/05/11 17:30:06;;;;;;;5.53;1.77;;;18.60;96.50;;;;;;5012421;28;20125;-76